Time;durP1;ratioP1;P1;durP2;ratioP2;P2;SDS_P1;SDS_P2;PMS_P1;PMS_P2;Temp;Humidity;BMP_temperature;BMP_pressure;BME280_temperature;BME280_humidity;BME280_pressure;Samples;Min_cycle;Max_cycle;Signal;HPM_P1;HPM_P2
2021/03/02 00:02:00;;;;;;;46.90;21.77;;;;;;;7.20;60.33;103123.88;4941536;28;114307;-72
2021/03/02 00:04:28;;;;;;;44.72;20.65;;;;;;;7.17;60.22;103121.19;4934487;28;113983;-73
2021/03/02 00:06:55;;;;;;;41.67;20.27;;;;;;;7.16;60.46;103123.84;4949194;28;124854;-72
2021/03/02 00:09:23;;;;;;;41.20;20.17;;;;;;;7.14;60.15;103121.19;4919499;28;123650;-72
2021/03/02 00:11:51;;;;;;;39.65;20.35;;;;;;;7.12;60.37;103116.78;4946706;28;113930;-72
2021/03/02 00:14:20;;;;;;;42.65;20.63;;;;;;;7.09;60.24;103115.00;4943776;28;114261;-72
2021/03/02 00:17:13;;;;;;;43.20;21.17;;;;;;;7.06;60.56;103116.75;4943400;28;124533;-72
2021/03/02 00:19:46;;;;;;;42.08;20.17;;;;;;;7.05;60.50;103115.88;4940361;28;123732;-72
2021/03/02 00:22:27;;;;;;;42.17;21.17;;;;;;;7.02;60.48;103115.84;4912480;28;114471;-72
2021/03/02 00:24:56;;;;;;;43.97;21.00;;;;;;;7.00;60.88;103118.47;4944295;28;114917;-72
2021/03/02 00:27:23;;;;;;;44.35;21.67;;;;;;;6.97;60.50;103104.41;4944038;28;122896;-72
2021/03/02 00:29:53;;;;;;;41.33;20.35;;;;;;;6.95;60.99;103106.13;4935874;28;124887;-73
2021/03/02 00:32:21;;;;;;;43.88;21.48;;;;;;;6.94;60.73;103107.00;4942761;28;113353;-72
2021/03/02 00:34:49;;;;;;;44.67;22.13;;;;;;;6.94;60.92;103114.91;4939378;28;113175;-72
2021/03/02 00:37:16;;;;;;;44.58;21.75;;;;;;;6.93;60.76;103107.88;4932049;28;124622;-72
2021/03/02 00:39:43;;;;;;;44.20;21.40;;;;;;;6.94;60.88;103112.28;4940968;28;124018;-72
2021/03/02 00:42:10;;;;;;;43.17;20.98;;;;;;;6.92;60.96;103104.38;4946232;28;114651;-72
2021/03/02 00:44:36;;;;;;;43.10;20.02;;;;;;;6.94;60.89;103107.00;4958662;28;114350;-72
2021/03/02 00:47:04;;;;;;;42.58;21.10;;;;;;;6.93;60.95;103105.25;4944086;28;124056;-72
2021/03/02 00:49:31;;;;;;;46.85;20.95;;;;;;;6.93;61.08;103107.88;4919738;28;123876;-72
2021/03/02 00:51:58;;;;;;;46.97;20.95;;;;;;;6.93;61.05;103105.25;4965196;28;114080;-72
2021/03/02 00:54:25;;;;;;;41.88;20.27;;;;;;;6.92;60.84;103109.63;4943186;28;114530;-72
2021/03/02 00:56:52;;;;;;;39.97;20.42;;;;;;;6.93;60.91;103105.25;4924770;28;123892;-72
2021/03/02 00:59:20;;;;;;;41.88;20.60;;;;;;;6.94;60.72;103112.28;4956396;28;123668;-72
2021/03/02 01:01:51;;;;;;;43.90;21.27;;;;;;;6.94;60.83;103109.66;4942971;28;114044;-72
2021/03/02 01:04:19;;;;;;;39.08;20.15;;;;;;;6.93;60.57;103115.78;4934744;28;113676;-72
2021/03/02 01:06:46;;;;;;;41.08;20.50;;;;;;;6.93;60.55;103105.25;4940673;28;123993;-72
2021/03/02 01:09:14;;;;;;;44.22;21.30;;;;;;;6.91;60.57;103112.25;4945716;28;124744;-72
2021/03/02 01:11:44;;;;;;;42.40;20.58;;;;;;;6.90;60.71;103105.25;4969088;28;114665;-72
2021/03/02 01:14:13;;;;;;;42.67;20.65;;;;;;;6.86;60.94;103103.47;4937373;28;114428;-72
2021/03/02 01:16:40;;;;;;;41.53;20.55;;;;;;;6.84;60.98;103098.16;4944106;28;124081;-72
2021/03/02 01:19:07;;;;;;;44.20;20.55;;;;;;;6.82;60.67;103103.44;4965627;28;123249;-72
2021/03/02 01:21:34;;;;;;;43.67;20.75;;;;;;;6.80;60.89;103097.28;4945999;28;114479;-72
2021/03/02 01:24:00;;;;;;;41.55;20.75;;;;;;;6.79;60.51;103100.75;4929034;28;113907;-72
2021/03/02 01:26:27;;;;;;;42.42;20.83;;;;;;;6.78;60.76;103104.28;4938057;28;123795;-72
2021/03/02 01:28:54;;;;;;;44.83;21.10;;;;;;;6.78;61.00;103096.38;4946593;28;123451;-72
2021/03/02 01:31:21;;;;;;;43.92;20.58;;;;;;;6.77;60.72;103099.88;4930590;28;114870;-72
2021/03/02 01:33:48;;;;;;;44.05;20.55;;;;;;;6.76;60.78;103092.84;4945877;28;114635;-72
2021/03/02 01:36:15;;;;;;;46.40;21.48;;;;;;;6.76;60.88;103092.84;4938100;28;123288;-72
2021/03/02 01:38:41;;;;;;;44.17;21.02;;;;;;;6.76;60.97;103086.69;4943369;28;124656;-72
2021/03/02 01:41:08;;;;;;;44.35;20.35;;;;;;;6.75;61.04;103091.06;4956880;28;113860;-72
2021/03/02 01:43:36;;;;;;;44.25;21.20;;;;;;;6.74;60.98;103078.78;4945241;28;113994;-72
2021/03/02 01:46:07;;;;;;;43.78;21.75;;;;;;;6.71;61.04;103089.31;4978213;28;123995;-72
2021/03/02 01:48:34;;;;;;;44.45;20.75;;;;;;;6.69;60.95;103085.78;4939462;28;123075;-72
2021/03/02 01:51:03;;;;;;;46.13;21.45;;;;;;;6.66;61.05;103085.75;4940140;28;114887;-72
2021/03/02 01:53:30;;;;;;;46.60;21.30;;;;;;;6.66;60.97;103085.75;4938737;28;114807;-71
2021/03/02 01:55:57;;;;;;;43.40;21.40;;;;;;;6.63;61.05;103081.34;4938214;28;125356;-71
2021/03/02 01:58:27;;;;;;;48.30;22.40;;;;;;;6.62;61.13;103074.31;4935054;28;124249;-71
2021/03/02 02:01:00;;;;;;;47.10;20.90;;;;;;;6.62;60.80;103083.97;4965327;28;115707;-72
2021/03/02 02:03:36;;;;;;;44.42;21.40;;;;;;;6.61;60.93;103082.19;4945319;28;115385;-70
2021/03/02 02:06:39;;;;;;;45.92;20.38;;;;;;;6.60;60.62;103080.44;4942137;28;124840;-71
2021/03/02 02:09:29;;;;;;;45.70;21.35;;;;;;;6.58;60.67;103082.19;4932457;28;124784;-71
2021/03/02 02:12:07;;;;;;;42.35;19.70;;;;;;;6.55;61.02;103071.63;4925345;28;114484;-71
2021/03/02 02:14:54;;;;;;;43.08;19.92;;;;;;;6.55;60.78;103071.63;4936099;28;113742;-71
2021/03/02 02:17:36;;;;;;;45.75;20.67;;;;;;;6.55;61.02;103076.88;4935503;28;123858;-71
2021/03/02 02:20:06;;;;;;;43.42;19.90;;;;;;;6.53;60.97;103070.72;4943430;28;124645;-71
2021/03/02 02:23:27;;;;;;;40.70;20.10;;;;;;;6.51;60.75;103075.09;4936730;28;114776;-71
2021/03/02 02:26:07;;;;;;;40.25;19.60;;;;;;;6.49;60.64;103076.84;4880620;28;114630;-71
2021/03/02 02:28:36;;;;;;;41.78;20.65;;;;;;;6.47;60.96;103070.69;4932197;28;124056;-70
2021/03/02 02:31:04;;;;;;;41.15;20.40;;;;;;;6.47;60.78;103079.44;4928725;28;123906;-71
2021/03/02 02:33:36;;;;;;;43.30;20.30;;;;;;;6.46;60.83;103061.00;4936330;28;114682;-71
2021/03/02 02:36:06;;;;;;;40.00;19.95;;;;;;;6.47;60.88;103068.06;4932751;28;114779;-71
2021/03/02 02:38:36;;;;;;;48.45;21.30;;;;;;;6.46;60.71;103066.28;4945784;28;123376;-71
2021/03/02 02:41:05;;;;;;;42.65;20.95;;;;;;;6.43;61.01;103073.28;4945560;28;123243;-71
2021/03/02 02:43:33;;;;;;;47.85;21.60;;;;;;;6.42;60.91;103066.28;4930898;28;114713;-71
2021/03/02 02:46:00;;;;;;;45.35;21.30;;;;;;;6.40;60.76;103062.75;4969098;28;114044;-71
2021/03/02 02:48:28;;;;;;;45.10;20.50;;;;;;;6.39;61.00;103058.34;4942762;28;124909;-71
2021/03/02 02:50:56;;;;;;;43.83;20.25;;;;;;;6.38;60.95;103059.19;4946627;28;123948;-72
2021/03/02 02:53:22;;;;;;;52.13;22.05;;;;;;;6.38;60.92;103053.94;4941344;28;115272;-72
2021/03/02 02:55:55;;;;;;;47.72;21.48;;;;;;;6.37;61.00;103052.19;4948138;28;115605;-71
2021/03/02 02:58:27;;;;;;;48.80;21.92;;;;;;;6.36;60.89;103055.66;4946910;28;125039;-72
2021/03/02 03:00:57;;;;;;;43.33;21.25;;;;;;;6.37;61.00;103051.31;4943367;28;123408;-72
2021/03/02 03:03:27;;;;;;;39.70;20.55;;;;;;;6.35;60.89;103053.91;4941846;28;114345;-73
2021/03/02 03:05:58;;;;;;;43.30;20.25;;;;;;;6.34;60.98;103052.16;4975171;28;113115;-72
2021/03/02 03:08:31;;;;;;;43.13;20.77;;;;;;;6.34;60.95;103057.41;4943797;28;123317;-73
2021/03/02 03:11:00;;;;;;;44.97;20.70;;;;;;;6.33;60.67;103054.75;4941388;28;125021;-72
2021/03/02 03:13:34;;;;;;;45.33;22.00;;;;;;;6.33;60.76;103055.66;4938284;28;114412;-72
2021/03/02 03:16:05;;;;;;;45.08;21.25;;;;;;;6.32;60.98;103053.88;4937251;28;114395;-72
2021/03/02 03:18:41;;;;;;;43.40;21.38;;;;;;;6.32;60.97;103053.88;4937463;28;124091;-73
2021/03/02 03:21:08;;;;;;;45.88;22.67;;;;;;;6.32;60.83;103053.88;4937816;28;124672;-72
2021/03/02 03:23:35;;;;;;;47.40;22.58;;;;;;;6.31;60.64;103057.41;4941911;28;113785;-71
2021/03/02 03:26:03;;;;;;;43.83;21.65;;;;;;;6.31;60.58;103052.13;4944151;28;113957;-71
2021/03/02 03:28:30;;;;;;;47.03;21.83;;;;;;;6.30;60.87;103050.34;4946021;28;123353;-71
2021/03/02 03:30:58;;;;;;;45.40;20.80;;;;;;;6.31;60.84;103052.13;4924017;28;124297;-71
2021/03/02 03:33:26;;;;;;;44.08;20.77;;;;;;;6.28;60.87;103054.72;4933192;28;114575;-71
2021/03/02 03:35:54;;;;;;;47.70;21.90;;;;;;;6.26;60.95;103048.56;4951131;28;113228;-72
2021/03/02 03:38:20;;;;;;;48.25;22.27;;;;;;;6.24;60.91;103045.06;4940460;28;124271;-71
2021/03/02 03:40:47;;;;;;;43.85;20.88;;;;;;;6.22;60.59;103046.78;4924460;28;123262;-71
2021/03/02 03:43:13;;;;;;;43.22;21.70;;;;;;;6.21;60.64;103050.28;4941647;28;115327;-73
2021/03/02 03:45:40;;;;;;;45.08;21.17;;;;;;;6.19;60.95;103041.50;4973020;28;114285;-71
2021/03/02 03:48:07;;;;;;;47.20;21.05;;;;;;;6.17;61.06;103045.88;4938287;28;123950;-71
2021/03/02 03:50:35;;;;;;;50.25;21.92;;;;;;;6.16;60.93;103051.97;4932614;28;124016;-71
2021/03/02 03:53:03;;;;;;;47.45;22.48;;;;;;;6.15;60.49;103044.97;4947696;28;113672;-71
2021/03/02 03:55:42;;;;;;;47.33;22.13;;;;;;;6.12;60.78;103044.94;4943619;28;114468;-71
2021/03/02 03:58:14;;;;;;;42.88;21.15;;;;;;;6.12;60.91;103039.66;4944315;28;123658;-71
2021/03/02 04:00:40;;;;;;;46.00;20.60;;;;;;;6.11;60.96;103043.19;4934255;28;124432;-71
2021/03/02 04:03:08;;;;;;;44.78;21.45;;;;;;;6.09;60.77;103044.94;4966026;28;115242;-71
2021/03/02 04:05:36;;;;;;;44.85;20.60;;;;;;;6.09;60.84;103044.94;4934567;28;113799;-71
2021/03/02 04:08:03;;;;;;;43.15;20.58;;;;;;;6.09;60.96;103039.66;4937848;28;124300;-71
2021/03/02 04:10:30;;;;;;;42.20;19.77;;;;;;;6.10;60.85;103044.03;4937185;28;124249;-71
2021/03/02 04:12:56;;;;;;;47.78;21.45;;;;;;;6.09;60.77;103037.03;4939984;28;113572;-71
2021/03/02 04:15:27;;;;;;;47.95;21.15;;;;;;;6.07;61.02;103036.13;4959224;28;114400;-73
2021/03/02 04:17:57;;;;;;;45.50;21.10;;;;;;;6.06;60.85;103040.50;4964128;28;124246;-71
2021/03/02 04:20:24;;;;;;;41.17;20.15;;;;;;;6.04;60.91;103027.31;4945246;28;124644;-72
2021/03/02 04:22:51;;;;;;;43.05;20.25;;;;;;;6.02;61.00;103042.22;4935076;28;114797;-71
2021/03/02 04:25:18;;;;;;;47.78;22.02;;;;;;;6.02;61.17;103042.22;4928394;28;114475;-71
2021/03/02 04:27:45;;;;;;;47.25;20.48;;;;;;;6.00;61.23;103050.97;4923927;28;124260;-71
2021/03/02 04:30:12;;;;;;;44.40;21.05;;;;;;;5.99;61.09;103049.19;4944126;28;124095;-71
2021/03/02 04:32:39;;;;;;;46.13;21.40;;;;;;;5.98;61.17;103048.31;4936925;28;114082;-71
2021/03/02 04:35:06;;;;;;;40.72;20.42;;;;;;;5.97;61.21;103046.56;4934580;28;115860;-71
2021/03/02 04:37:35;;;;;;;45.90;20.83;;;;;;;5.97;61.07;103046.56;4969432;28;125133;-71
2021/03/02 04:40:03;;;;;;;46.40;20.35;;;;;;;5.98;61.06;103043.06;4942887;28;124622;-71
2021/03/02 04:42:30;;;;;;;45.65;20.25;;;;;;;5.99;60.89;103043.94;4939272;28;114281;-71
2021/03/02 04:44:56;;;;;;;43.40;20.55;;;;;;;5.98;60.98;103043.06;4944563;28;114439;-71
2021/03/02 04:47:23;;;;;;;41.67;20.55;;;;;;;5.97;61.10;103036.06;4949223;28;124081;-71
2021/03/02 04:49:50;;;;;;;40.22;18.98;;;;;;;5.97;60.80;103035.16;4945995;28;124763;-71
2021/03/02 04:52:17;;;;;;;39.92;18.40;;;;;;;5.97;60.83;103040.41;4937915;28;115124;-71
2021/03/02 04:54:44;;;;;;;38.50;19.05;;;;;;;5.95;60.78;103035.16;4942999;28;114096;-71
2021/03/02 04:57:11;;;;;;;41.47;19.70;;;;;;;5.96;60.69;103039.53;4936649;28;124496;-71
2021/03/02 04:59:38;;;;;;;44.47;20.05;;;;;;;5.95;60.73;103035.16;4936893;28;123331;-71
2021/03/02 05:02:04;;;;;;;47.58;19.83;;;;;;;5.93;60.74;103028.94;4958279;28;113546;-71
2021/03/02 05:04:31;;;;;;;43.03;20.35;;;;;;;5.92;60.65;103042.09;4945026;28;114059;-71
2021/03/02 05:06:58;;;;;;;43.45;20.15;;;;;;;5.90;60.81;103039.44;4946275;28;124718;-71
2021/03/02 05:09:24;;;;;;;46.88;19.30;;;;;;;5.89;60.88;103042.94;4957580;28;123096;-71
2021/03/02 05:11:53;;;;;;;43.75;19.13;;;;;;;5.87;61.02;103034.16;4938314;28;114516;-71
2021/03/02 05:14:20;;;;;;;42.38;20.00;;;;;;;5.87;60.79;103044.66;4936070;28;115148;-71
2021/03/02 05:16:47;;;;;;;41.47;19.58;;;;;;;5.86;61.16;103040.28;4934552;28;124336;-71
2021/03/02 05:19:14;;;;;;;38.72;19.08;;;;;;;5.85;60.72;103035.88;4960545;28;122807;-71
2021/03/02 05:21:41;;;;;;;41.85;20.02;;;;;;;5.84;60.61;103036.75;4944256;28;115323;-71
2021/03/02 05:24:08;;;;;;;47.80;20.83;;;;;;;5.84;61.08;103031.50;4969794;28;115537;-71
2021/03/02 05:26:35;;;;;;;38.95;18.90;;;;;;;5.82;60.86;103031.47;4939698;28;124251;-71
2021/03/02 05:29:01;;;;;;;39.40;18.95;;;;;;;5.82;60.95;103035.84;4963632;28;122510;-71
2021/03/02 05:31:28;;;;;;;38.00;19.38;;;;;;;5.81;61.07;103029.72;4936029;28;114568;-71
2021/03/02 05:33:55;;;;;;;39.30;18.55;;;;;;;5.80;61.02;103037.56;4962524;22;113978;-70
2021/03/02 05:36:25;;;;;;;42.95;19.90;;;;;;;5.79;60.86;103030.56;4953437;28;124994;-70
2021/03/02 05:38:52;;;;;;;42.05;18.42;;;;;;;5.77;60.84;103032.31;4955503;28;123782;-70
2021/03/02 05:41:19;;;;;;;42.20;19.05;;;;;;;5.76;60.97;103025.28;4954915;28;113056;-69
2021/03/02 05:43:46;;;;;;;42.22;19.42;;;;;;;5.75;60.96;103026.16;4952893;28;112442;-70
2021/03/02 05:46:31;;;;;;;41.43;19.33;;;;;;;5.73;60.86;103028.75;4950824;28;125060;-70
2021/03/02 05:48:59;;;;;;;40.78;18.42;;;;;;;5.73;60.89;103030.53;4948470;28;123492;-71
2021/03/02 05:51:25;;;;;;;36.45;19.15;;;;;;;5.71;61.06;103026.97;4960515;28;113707;-70
2021/03/02 05:53:53;;;;;;;38.10;18.73;;;;;;;5.71;60.83;103026.97;4955122;28;113441;-70
2021/03/02 05:56:19;;;;;;;39.92;19.83;;;;;;;5.69;60.91;103015.56;4952760;28;123656;-70
2021/03/02 05:58:46;;;;;;;43.97;20.52;;;;;;;5.68;61.03;103022.56;4959119;28;124122;-70
2021/03/02 06:01:13;;;;;;;40.38;19.67;;;;;;;5.68;60.84;103021.69;4960204;28;114771;-70
2021/03/02 06:03:39;;;;;;;44.53;21.25;;;;;;;5.66;61.11;103022.53;4960841;28;114826;-70
2021/03/02 06:06:06;;;;;;;43.17;20.83;;;;;;;5.66;60.99;103019.03;4949492;28;124369;-70
2021/03/02 06:08:33;;;;;;;44.35;20.60;;;;;;;5.65;61.11;103023.44;4972633;28;123642;-70
2021/03/02 06:11:28;;;;;;;44.20;20.77;;;;;;;5.64;60.96;103021.66;4948248;28;115764;-70
2021/03/02 06:14:22;;;;;;;40.47;19.63;;;;;;;5.63;60.85;103025.16;4959017;28;114927;-70
2021/03/02 06:16:55;;;;;;;43.33;22.10;;;;;;;5.63;60.94;103019.00;4960897;28;123915;-70
2021/03/02 06:19:40;;;;;;;43.85;20.23;;;;;;;5.60;61.10;103025.13;4955258;28;124350;-70
2021/03/02 06:22:28;;;;;;;40.78;20.10;;;;;;;5.60;61.00;103027.75;4952164;28;115002;-70
2021/03/02 06:24:54;;;;;;;38.45;19.98;;;;;;;5.61;61.32;103026.91;4956097;28;113279;-70
2021/03/02 06:27:21;;;;;;;37.33;19.85;;;;;;;5.60;61.03;103035.63;4961739;28;123832;-68
2021/03/02 06:30:06;;;;;;;45.75;20.77;;;;;;;5.58;61.27;103034.72;4947605;28;123397;-69
2021/03/02 06:32:47;;;;;;;37.22;19.45;;;;;;;5.57;61.24;103030.31;4960375;28;114335;-69
2021/03/02 06:35:32;;;;;;;44.70;19.77;;;;;;;5.56;61.44;103036.47;4972415;28;112056;-69
2021/03/02 06:38:00;;;;;;;41.10;20.77;;;;;;;5.56;61.27;103033.84;4954672;28;124966;-70
2021/03/02 06:40:43;;;;;;;38.38;19.27;;;;;;;5.59;61.58;103039.09;4942807;28;123198;-69
2021/03/02 06:43:38;;;;;;;42.80;20.65;;;;;;;5.59;61.56;103041.72;4956871;28;113813;-69
2021/03/02 06:46:10;;;;;;;35.78;19.05;;;;;;;5.62;61.51;103033.91;4943704;28;113515;-71
2021/03/02 06:48:56;;;;;;;38.85;20.20;;;;;;;5.62;61.44;103028.63;4958951;28;123008;-70
2021/03/02 06:51:41;;;;;;;;;;;;;;;5.62;60.86;103033.91;4938114;28;122203;-70
2021/03/02 06:54:11;;;;;;;36.42;18.45;;;;;;;5.64;61.09;103042.69;4957720;28;112969;-71
2021/03/02 06:56:39;;;;;;;35.50;19.40;;;;;;;5.64;61.46;103042.69;4956230;28;114613;-70
2021/03/02 06:59:14;;;;;;;38.78;19.08;;;;;;;5.67;61.47;103039.22;4958589;28;125391;-71
2021/03/02 07:01:47;;;;;;;40.17;20.90;;;;;;;5.69;61.52;103044.47;4953415;28;124261;-70
2021/03/02 07:04:18;;;;;;;43.90;22.00;;;;;;;5.72;61.87;103044.50;4948643;28;115775;-70
2021/03/02 07:06:49;;;;;;;44.55;22.20;;;;;;;5.75;61.43;103039.28;4956326;28;114437;-70
2021/03/02 07:09:16;;;;;;;42.53;22.02;;;;;;;5.81;61.70;103049.88;4945093;28;123679;-71
2021/03/02 07:11:45;;;;;;;39.28;21.20;;;;;;;5.86;61.74;103048.19;4949004;28;123773;-70
2021/03/02 07:14:13;;;;;;;40.40;20.35;;;;;;;5.91;62.04;103050.84;4954505;28;113612;-70
2021/03/02 07:16:45;;;;;;;42.88;20.33;;;;;;;5.96;61.80;103043.91;4949021;28;114689;-70
2021/03/02 07:19:18;;;;;;;40.05;19.95;;;;;;;6.03;62.11;103041.38;4955464;28;123796;-71
2021/03/02 07:21:54;;;;;;;42.10;19.27;;;;;;;6.10;62.03;103046.66;4939580;28;123419;-70
2021/03/02 07:24:26;;;;;;;42.65;20.25;;;;;;;6.17;62.33;103046.75;4943687;28;113714;-70
2021/03/02 07:26:57;;;;;;;37.90;19.40;;;;;;;6.23;62.33;103053.81;4953587;28;114182;-71
2021/03/02 07:29:24;;;;;;;41.20;19.58;;;;;;;6.29;62.16;103047.72;4951749;28;124324;-70
2021/03/02 07:31:51;;;;;;;35.55;18.98;;;;;;;6.33;62.02;103050.41;4955263;28;122371;-70
2021/03/02 07:34:18;;;;;;;37.45;19.75;;;;;;;6.39;62.36;103055.69;4955771;28;114713;-70
2021/03/02 07:36:45;;;;;;;37.10;19.58;;;;;;;6.46;61.97;103061.00;4940279;28;113438;-70
2021/03/02 07:39:17;;;;;;;36.17;19.60;;;;;;;6.51;61.94;103054.03;4947486;28;122183;-70
2021/03/02 07:41:45;;;;;;;37.47;18.35;;;;;;;6.56;62.10;103057.59;4952402;28;124082;-70
2021/03/02 07:44:14;;;;;;;35.53;19.30;;;;;;;6.62;61.85;103060.25;4939470;28;96786;-70
2021/03/02 07:46:40;;;;;;;35.78;18.80;;;;;;;6.66;61.99;103064.69;4954570;28;113306;-70
2021/03/02 07:49:23;;;;;;;33.83;18.83;;;;;;;6.71;62.00;103062.97;4939992;28;123761;-70
2021/03/02 07:51:56;;;;;;;37.72;18.30;;;;;;;6.75;62.32;103064.75;4954576;28;121797;-70
2021/03/02 07:54:23;;;;;;;30.13;17.63;;;;;;;6.81;62.12;103064.78;4948275;28;114791;-70
2021/03/02 07:57:13;;;;;;;34.90;18.77;;;;;;;6.86;61.95;103062.19;4953133;28;115229;-71
2021/03/02 07:59:40;;;;;;;32.90;17.52;;;;;;;6.92;62.14;103061.34;4949658;28;124097;-71
2021/03/02 08:02:19;;;;;;;33.88;17.90;;;;;;;6.98;62.13;103056.09;4952910;28;124109;-70
2021/03/02 08:04:48;;;;;;;29.17;17.70;;;;;;;7.05;62.37;103063.16;4946768;28;114423;-71
2021/03/02 08:07:23;;;;;;;29.38;17.35;;;;;;;7.12;62.36;103064.97;4940580;28;113988;-70
2021/03/02 08:09:52;;;;;;;32.25;18.23;;;;;;;7.20;62.44;103072.91;4953119;28;122893;-70
2021/03/02 08:12:33;;;;;;;33.55;17.42;;;;;;;7.27;62.53;103079.09;4954276;28;123618;-69
2021/03/02 08:15:09;;;;;;;32.00;17.13;;;;;;;7.36;62.27;103069.44;4940782;28;112490;-70
2021/03/02 08:17:37;;;;;;;31.00;16.67;;;;;;;7.45;62.14;103068.63;4948888;28;114054;-70
2021/03/02 08:20:06;;;;;;;28.52;16.75;;;;;;;7.53;62.65;103074.78;4937988;28;123864;-70
2021/03/02 08:22:35;;;;;;;31.35;16.45;;;;;;;7.63;62.23;103072.19;4951146;28;123656;-70
2021/03/02 08:25:04;;;;;;;28.70;15.85;;;;;;;7.71;62.40;103073.13;4956957;28;114426;-71
2021/03/02 08:27:38;;;;;;;26.98;15.18;;;;;;;7.80;62.56;103075.78;4944569;28;113907;-71
2021/03/02 08:30:11;;;;;;;26.80;15.77;;;;;;;7.91;62.53;103074.06;4943637;28;123913;-71
2021/03/02 08:32:39;;;;;;;26.15;15.02;;;;;;;7.99;62.55;103072.28;4954095;28;124815;-71
2021/03/02 08:35:16;;;;;;;27.08;14.45;;;;;;;8.12;62.26;103069.69;4954402;28;113516;-71
2021/03/02 08:37:45;;;;;;;24.90;14.88;;;;;;;8.23;62.32;103073.22;4957815;28;113857;-70
2021/03/02 08:40:18;;;;;;;25.08;14.50;;;;;;;8.34;62.40;103071.47;4949901;28;123269;-71
2021/03/02 08:43:05;;;;;;;23.95;14.63;;;;;;;8.48;62.39;103070.63;4943016;28;123860;-71
2021/03/02 08:45:45;;;;;;;24.02;14.13;;;;;;;8.62;62.24;103073.22;4942169;28;115351;-71
2021/03/02 08:48:27;;;;;;;26.35;14.20;;;;;;;8.74;62.03;103079.38;4954565;28;115562;-71
2021/03/02 08:51:00;;;;;;;20.75;13.15;;;;;;;8.88;61.87;103070.56;4956080;28;124196;-71
2021/03/02 08:53:38;;;;;;;23.33;13.65;;;;;;;9.02;61.84;103078.44;4953096;28;124095;-71
2021/03/02 08:56:25;;;;;;;23.48;13.55;;;;;;;9.16;61.84;103066.94;4954696;28;114717;-70
2021/03/02 08:59:01;;;;;;;23.48;12.88;;;;;;;9.32;61.86;103072.19;4954131;28;112194;-71
2021/03/02 09:01:41;;;;;;;22.20;12.23;;;;;;;9.47;61.69;103072.09;4956411;28;124125;-70
2021/03/02 09:04:17;;;;;;;23.00;13.02;;;;;;;9.63;61.46;103072.06;4961334;28;123861;-70
2021/03/02 09:06:48;;;;;;;21.77;12.75;;;;;;;9.78;60.97;103071.97;4961532;28;114218;-71
2021/03/02 09:09:18;;;;;;;21.83;12.35;;;;;;;9.94;60.92;103073.63;4964416;28;111724;-70
2021/03/02 09:11:52;;;;;;;19.50;11.20;;;;;;;10.07;60.47;103069.13;4959506;28;124390;-70
2021/03/02 09:14:28;;;;;;;20.85;11.43;;;;;;;10.24;60.73;103071.63;4941971;28;123273;-71
2021/03/02 09:16:59;;;;;;;17.67;11.10;;;;;;;10.42;60.04;103075.09;4953340;28;114498;-70
2021/03/02 09:19:27;;;;;;;16.92;11.30;;;;;;;10.55;59.70;103074.09;4955137;28;114466;-70
2021/03/02 09:22:09;;;;;;;16.45;11.52;;;;;;;10.68;59.74;103075.72;4957458;28;122941;-71
2021/03/02 09:24:43;;;;;;;19.27;11.57;;;;;;;10.84;59.47;103067.63;4953922;28;124344;-70
2021/03/02 09:27:19;;;;;;;15.85;11.15;;;;;;;10.97;59.27;103071.91;4940949;28;114595;-71
2021/03/02 09:29:50;;;;;;;17.67;11.27;;;;;;;11.11;59.23;103066.41;4941686;28;113188;-70
2021/03/02 09:32:22;;;;;;;17.70;10.68;;;;;;;11.25;58.59;103068.94;4944492;28;123648;-70
2021/03/02 09:34:57;;;;;;;14.07;10.18;;;;;;;11.38;58.28;103065.22;4962137;28;123836;-70
2021/03/02 09:37:24;;;;;;;19.02;10.98;;;;;;;11.50;58.18;103065.06;4943182;28;113123;-70
2021/03/02 09:40:02;;;;;;;15.57;10.77;;;;;;;11.63;57.90;103067.56;4964015;28;113333;-71
2021/03/02 09:42:32;;;;;;;15.52;10.73;;;;;;;11.75;57.58;103064.72;4931489;28;122341;-71
2021/03/02 09:45:04;;;;;;;17.50;11.35;;;;;;;11.87;57.88;103064.56;4945680;28;124079;-70
2021/03/02 09:47:35;;;;;;;16.98;10.90;;;;;;;12.02;57.63;103068.78;4958687;28;115995;-71
2021/03/02 09:50:07;;;;;;;16.65;11.38;;;;;;;12.19;57.44;103060.56;4949001;28;113084;-70
2021/03/02 09:52:48;;;;;;;20.58;11.10;;;;;;;12.33;57.01;103062.09;4944648;28;124791;-71
2021/03/02 09:55:21;;;;;;;18.25;10.90;;;;;;;12.49;56.49;103063.63;4949346;28;123116;-71
2021/03/02 09:57:49;;;;;;;14.80;10.52;;;;;;;12.58;56.18;103058.13;4948813;28;113851;-72
2021/03/02 10:00:18;;;;;;;15.75;10.60;;;;;;;12.66;55.92;103061.53;4958109;28;111911;-70
2021/03/02 10:02:50;;;;;;;17.60;10.85;;;;;;;12.76;55.84;103056.03;4952231;28;122628;-71
2021/03/02 10:05:41;;;;;;;17.60;10.43;;;;;;;12.86;55.31;103060.25;4959930;28;123600;-71
2021/03/02 10:08:33;;;;;;;16.17;10.23;;;;;;;12.97;54.83;103060.94;4961263;28;114570;-71
2021/03/02 10:11:01;;;;;;;15.32;9.88;;;;;;;13.07;54.84;103055.44;4955461;28;115028;-71
2021/03/02 10:13:37;;;;;;;15.93;10.10;;;;;;;13.17;54.71;103062.34;4952462;28;122582;-71
2021/03/02 10:16:11;;;;;;;12.63;9.85;;;;;;;13.29;54.44;103051.44;4955877;28;123200;-71
2021/03/02 10:18:56;;;;;;;15.80;9.82;;;;;;;13.41;54.17;103045.91;4953450;28;114135;-71
2021/03/02 10:21:28;;;;;;;15.05;9.98;;;;;;;13.53;54.19;103049.19;4962260;28;114381;-71
2021/03/02 10:23:57;;;;;;;15.82;10.00;;;;;;;13.63;53.54;103056.06;4960177;28;124320;-71
2021/03/02 10:26:28;;;;;;;14.23;10.55;;;;;;;13.74;53.28;103054.03;4947548;28;123309;-71
2021/03/02 10:28:55;;;;;;;17.70;10.68;;;;;;;13.82;53.07;103052.09;4958220;28;116145;-71
2021/03/02 10:31:22;;;;;;;15.32;9.45;;;;;;;13.91;52.87;103055.44;4959459;28;114940;-71
2021/03/02 10:33:49;;;;;;;16.15;10.45;;;;;;;14.00;52.55;103049.88;4958584;28;124067;-71
2021/03/02 10:36:37;;;;;;;16.25;11.20;;;;;;;14.09;53.23;103056.75;4960308;28;123465;-71
2021/03/02 10:39:07;;;;;;;14.20;10.00;;;;;;;14.23;52.62;103059.13;4944705;28;113019;-70
2021/03/02 10:41:34;;;;;;;14.77;10.60;;;;;;;14.32;52.35;103056.22;4961103;28;113515;-71
2021/03/02 10:44:02;;;;;;;13.98;10.35;;;;;;;14.41;51.82;103062.19;4940345;28;123287;-71
2021/03/02 10:46:29;;;;;;;15.18;9.88;;;;;;;14.49;51.31;103059.31;4974653;28;123085;-71
2021/03/02 10:48:57;;;;;;;16.50;9.93;;;;;;;14.55;51.16;103053.81;4957980;28;114384;-71
2021/03/02 10:51:25;;;;;;;14.20;10.18;;;;;;;14.63;50.99;103050.09;4959374;28;113970;-71
2021/03/02 10:53:52;;;;;;;16.58;10.10;;;;;;;14.73;50.78;103046.25;4955932;28;123181;-71
2021/03/02 10:56:20;;;;;;;15.20;10.00;;;;;;;14.83;50.51;103046.91;4960338;28;123430;-71
2021/03/02 10:58:48;;;;;;;14.18;9.65;;;;;;;14.92;50.45;103042.19;4946766;28;112324;-71
2021/03/02 11:01:17;;;;;;;13.95;9.73;;;;;;;15.03;50.04;103043.66;4964621;28;112632;-71
2021/03/02 11:03:44;;;;;;;14.27;10.25;;;;;;;15.09;50.16;103040.84;4975294;28;122106;-70
2021/03/02 11:06:18;;;;;;;16.17;9.90;;;;;;;15.16;49.83;103039.72;4977540;28;124803;-70
2021/03/02 11:09:00;;;;;;;18.00;10.40;;;;;;;15.28;49.75;103039.38;4975848;28;113805;-71
2021/03/02 11:11:27;;;;;;;15.65;10.98;;;;;;;15.40;49.77;103027.44;4967084;28;113858;-71
2021/03/02 11:13:54;;;;;;;14.60;9.45;;;;;;;15.52;49.38;103031.53;4970079;28;124611;-71
2021/03/02 11:16:21;;;;;;;13.27;9.68;;;;;;;15.61;48.69;103025.91;4970385;28;123190;-71
2021/03/02 11:18:55;;;;;;;17.15;10.27;;;;;;;15.70;48.61;103030.97;4963585;28;114685;-71
2021/03/02 11:21:22;;;;;;;14.30;9.88;;;;;;;15.78;48.27;103017.38;4958159;28;114021;-71
2021/03/02 11:23:49;;;;;;;17.45;10.18;;;;;;;15.86;48.21;103025.16;4960454;28;123230;-70
2021/03/02 11:26:16;;;;;;;14.20;10.23;;;;;;;15.92;48.06;103014.28;4960138;28;124011;-71
2021/03/02 11:28:42;;;;;;;14.65;10.80;;;;;;;15.99;48.03;103007.78;4964835;28;113950;-71